sensor_id;sensor_type;location;lat;lon;timestamp;P1;durP1;ratioP1;P2;durP2;ratioP2
75035;SDS011;64247;51.540;5.854;2023-08-01T00:00:25;2.47;;;1.90;;
75035;SDS011;64247;51.540;5.854;2023-08-01T00:02:26;3.35;;;2.50;;
75035;SDS011;64247;51.540;5.854;2023-08-01T00:04:27;3.17;;;2.55;;
75035;SDS011;64247;51.540;5.854;2023-08-01T00:06:28;3.05;;;2.20;;
75035;SDS011;64247;51.540;5.854;2023-08-01T00:08:29;3.15;;;2.65;;
75035;SDS011;64247;51.540;5.854;2023-08-01T00:10:29;4.07;;;2.83;;
75035;SDS011;64247;51.540;5.854;2023-08-01T00:12:30;4.28;;;3.88;;
75035;SDS011;64247;51.540;5.854;2023-08-01T00:14:31;4.88;;;2.50;;
75035;SDS011;64247;51.540;5.854;2023-08-01T00:16:33;4.13;;;2.22;;
75035;SDS011;64247;51.540;5.854;2023-08-01T00:18:33;3.25;;;2.63;;
75035;SDS011;64247;51.540;5.854;2023-08-01T00:20:35;3.83;;;3.22;;
75035;SDS011;64247;51.540;5.854;2023-08-01T00:22:35;6.10;;;3.35;;
75035;SDS011;64247;51.540;5.854;2023-08-01T00:24:37;6.07;;;3.47;;
75035;SDS011;64247;51.540;5.854;2023-08-01T00:26:37;3.63;;;3.22;;
75035;SDS011;64247;51.540;5.854;2023-08-01T00:28:38;5.18;;;2.97;;
75035;SDS011;64247;51.540;5.854;2023-08-01T00:30:39;5.47;;;3.50;;
75035;SDS011;64247;51.540;5.854;2023-08-01T00:32:40;3.97;;;2.95;;
75035;SDS011;64247;51.540;5.854;2023-08-01T00:34:42;6.45;;;3.80;;
75035;SDS011;64247;51.540;5.854;2023-08-01T00:36:43;4.80;;;3.10;;
75035;SDS011;64247;51.540;5.854;2023-08-01T00:38:44;5.93;;;4.18;;
75035;SDS011;64247;51.540;5.854;2023-08-01T00:40:45;5.57;;;4.00;;
75035;SDS011;64247;51.540;5.854;2023-08-01T00:42:45;5.93;;;3.97;;
75035;SDS011;64247;51.540;5.854;2023-08-01T00:44:46;7.18;;;4.15;;
75035;SDS011;64247;51.540;5.854;2023-08-01T00:46:49;6.40;;;4.53;;
75035;SDS011;64247;51.540;5.854;2023-08-01T00:48:50;7.63;;;4.05;;
75035;SDS011;64247;51.540;5.854;2023-08-01T00:50:51;7.10;;;4.65;;
75035;SDS011;64247;51.540;5.854;2023-08-01T00:52:52;5.80;;;4.85;;
75035;SDS011;64247;51.540;5.854;2023-08-01T00:54:53;6.03;;;3.92;;
75035;SDS011;64247;51.540;5.854;2023-08-01T00:56:54;6.38;;;4.38;;
75035;SDS011;64247;51.540;5.854;2023-08-01T00:58:55;7.00;;;3.40;;
75035;SDS011;64247;51.540;5.854;2023-08-01T01:00:56;6.28;;;4.47;;
75035;SDS011;64247;51.540;5.854;2023-08-01T01:02:59;5.93;;;4.05;;
75035;SDS011;64247;51.540;5.854;2023-08-01T01:05:01;6.63;;;4.90;;
75035;SDS011;64247;51.540;5.854;2023-08-01T01:07:03;9.50;;;4.93;;
75035;SDS011;64247;51.540;5.854;2023-08-01T01:11:28;6.82;;;4.60;;
75035;SDS011;64247;51.540;5.854;2023-08-01T01:13:29;7.40;;;5.18;;
75035;SDS011;64247;51.540;5.854;2023-08-01T01:15:30;11.70;;;5.32;;
75035;SDS011;64247;51.540;5.854;2023-08-01T01:17:31;6.70;;;5.28;;
75035;SDS011;64247;51.540;5.854;2023-08-01T01:19:32;9.52;;;5.53;;
75035;SDS011;64247;51.540;5.854;2023-08-01T01:21:34;9.63;;;5.55;;
75035;SDS011;64247;51.540;5.854;2023-08-01T01:23:37;7.22;;;5.53;;
75035;SDS011;64247;51.540;5.854;2023-08-01T01:25:39;7.65;;;4.88;;
75035;SDS011;64247;51.540;5.854;2023-08-01T01:27:41;7.18;;;5.20;;
75035;SDS011;64247;51.540;5.854;2023-08-01T01:29:43;5.88;;;4.00;;
75035;SDS011;64247;51.540;5.854;2023-08-01T01:31:45;6.75;;;3.70;;
75035;SDS011;64247;51.540;5.854;2023-08-01T01:33:47;6.00;;;4.80;;
75035;SDS011;64247;51.540;5.854;2023-08-01T01:35:48;9.15;;;4.70;;
75035;SDS011;64247;51.540;5.854;2023-08-01T01:37:48;9.27;;;6.00;;
75035;SDS011;64247;51.540;5.854;2023-08-01T01:39:49;8.05;;;5.47;;
75035;SDS011;64247;51.540;5.854;2023-08-01T01:41:50;9.48;;;4.15;;
75035;SDS011;64247;51.540;5.854;2023-08-01T01:43:51;11.48;;;6.32;;
75035;SDS011;64247;51.540;5.854;2023-08-01T01:45:52;7.18;;;4.13;;
75035;SDS011;64247;51.540;5.854;2023-08-01T01:47:53;7.85;;;5.10;;
75035;SDS011;64247;51.540;5.854;2023-08-01T01:49:54;10.18;;;5.53;;
75035;SDS011;64247;51.540;5.854;2023-08-01T01:51:54;5.80;;;4.10;;
75035;SDS011;64247;51.540;5.854;2023-08-01T01:53:55;8.20;;;4.43;;
75035;SDS011;64247;51.540;5.854;2023-08-01T01:55:57;9.40;;;5.30;;
75035;SDS011;64247;51.540;5.854;2023-08-01T01:57:58;10.27;;;6.40;;
75035;SDS011;64247;51.540;5.854;2023-08-01T01:59:59;8.43;;;4.53;;
75035;SDS011;64247;51.540;5.854;2023-08-01T02:02:00;12.40;;;6.03;;
75035;SDS011;64247;51.540;5.854;2023-08-01T02:04:00;9.60;;;6.07;;
75035;SDS011;64247;51.540;5.854;2023-08-01T02:06:02;6.28;;;5.15;;
75035;SDS011;64247;51.540;5.854;2023-08-01T02:08:05;12.05;;;6.05;;
75035;SDS011;64247;51.540;5.854;2023-08-01T02:10:06;8.27;;;5.57;;
75035;SDS011;64247;51.540;5.854;2023-08-01T02:12:08;13.65;;;5.68;;
75035;SDS011;64247;51.540;5.854;2023-08-01T02:14:10;10.82;;;4.50;;
75035;SDS011;64247;51.540;5.854;2023-08-01T02:16:11;8.88;;;5.45;;
75035;SDS011;64247;51.540;5.854;2023-08-01T02:18:12;6.90;;;4.35;;
75035;SDS011;64247;51.540;5.854;2023-08-01T02:20:13;6.53;;;4.82;;
75035;SDS011;64247;51.540;5.854;2023-08-01T02:22:13;8.45;;;4.93;;
75035;SDS011;64247;51.540;5.854;2023-08-01T02:24:14;5.90;;;4.38;;
75035;SDS011;64247;51.540;5.854;2023-08-01T02:26:15;9.32;;;5.68;;
75035;SDS011;64247;51.540;5.854;2023-08-01T02:28:16;9.50;;;5.32;;
75035;SDS011;64247;51.540;5.854;2023-08-01T02:30:17;12.95;;;5.63;;
75035;SDS011;64247;51.540;5.854;2023-08-01T02:32:20;9.15;;;4.88;;
75035;SDS011;64247;51.540;5.854;2023-08-01T02:34:22;12.98;;;5.72;;
75035;SDS011;64247;51.540;5.854;2023-08-01T02:36:22;14.82;;;5.32;;
75035;SDS011;64247;51.540;5.854;2023-08-01T02:38:24;6.18;;;4.55;;
75035;SDS011;64247;51.540;5.854;2023-08-01T02:40:24;9.73;;;5.05;;
75035;SDS011;64247;51.540;5.854;2023-08-01T02:42:27;9.77;;;3.72;;
75035;SDS011;64247;51.540;5.854;2023-08-01T02:44:28;10.45;;;4.72;;
75035;SDS011;64247;51.540;5.854;2023-08-01T02:46:29;5.30;;;4.00;;
75035;SDS011;64247;51.540;5.854;2023-08-01T02:48:31;7.93;;;4.40;;
75035;SDS011;64247;51.540;5.854;2023-08-01T02:50:32;10.90;;;4.82;;
75035;SDS011;64247;51.540;5.854;2023-08-01T02:52:33;7.53;;;4.68;;
75035;SDS011;64247;51.540;5.854;2023-08-01T02:54:34;8.07;;;5.90;;
75035;SDS011;64247;51.540;5.854;2023-08-01T02:56:35;14.48;;;6.28;;
75035;SDS011;64247;51.540;5.854;2023-08-01T02:58:41;10.88;;;7.22;;
75035;SDS011;64247;51.540;5.854;2023-08-01T03:00:42;9.30;;;5.78;;
75035;SDS011;64247;51.540;5.854;2023-08-01T03:02:43;9.93;;;5.90;;
75035;SDS011;64247;51.540;5.854;2023-08-01T03:04:44;12.50;;;7.47;;
75035;SDS011;64247;51.540;5.854;2023-08-01T03:06:45;11.50;;;7.18;;
75035;SDS011;64247;51.540;5.854;2023-08-01T03:08:45;8.52;;;5.47;;
75035;SDS011;64247;51.540;5.854;2023-08-01T03:10:46;16.70;;;6.15;;
75035;SDS011;64247;51.540;5.854;2023-08-01T03:12:47;13.23;;;7.68;;
75035;SDS011;64247;51.540;5.854;2023-08-01T03:14:48;13.38;;;6.57;;
75035;SDS011;64247;51.540;5.854;2023-08-01T03:16:49;11.23;;;6.07;;
75035;SDS011;64247;51.540;5.854;2023-08-01T03:18:50;14.70;;;7.88;;
75035;SDS011;64247;51.540;5.854;2023-08-01T03:20:51;10.23;;;5.93;;
75035;SDS011;64247;51.540;5.854;2023-08-01T03:22:53;10.00;;;6.43;;
75035;SDS011;64247;51.540;5.854;2023-08-01T03:24:54;9.88;;;6.28;;
75035;SDS011;64247;51.540;5.854;2023-08-01T03:26:55;14.90;;;7.85;;
75035;SDS011;64247;51.540;5.854;2023-08-01T03:28:56;16.63;;;8.98;;
75035;SDS011;64247;51.540;5.854;2023-08-01T03:30:57;15.40;;;7.13;;
75035;SDS011;64247;51.540;5.854;2023-08-01T03:32:59;15.05;;;8.80;;
75035;SDS011;64247;51.540;5.854;2023-08-01T03:35:01;15.65;;;8.43;;
75035;SDS011;64247;51.540;5.854;2023-08-01T03:37:03;19.33;;;9.20;;
75035;SDS011;64247;51.540;5.854;2023-08-01T03:39:05;18.45;;;7.80;;
75035;SDS011;64247;51.540;5.854;2023-08-01T03:41:05;16.77;;;10.25;;
75035;SDS011;64247;51.540;5.854;2023-08-01T03:43:06;17.15;;;9.25;;
75035;SDS011;64247;51.540;5.854;2023-08-01T03:45:09;16.05;;;8.38;;
75035;SDS011;64247;51.540;5.854;2023-08-01T03:47:10;18.30;;;8.25;;
75035;SDS011;64247;51.540;5.854;2023-08-01T03:49:11;14.25;;;7.90;;
75035;SDS011;64247;51.540;5.854;2023-08-01T03:51:12;15.35;;;8.68;;
75035;SDS011;64247;51.540;5.854;2023-08-01T03:53:15;17.80;;;8.40;;
75035;SDS011;64247;51.540;5.854;2023-08-01T03:55:16;18.33;;;10.10;;
75035;SDS011;64247;51.540;5.854;2023-08-01T03:57:17;11.13;;;5.95;;
75035;SDS011;64247;51.540;5.854;2023-08-01T03:59:18;20.42;;;11.05;;
75035;SDS011;64247;51.540;5.854;2023-08-01T04:01:18;17.55;;;10.02;;
75035;SDS011;64247;51.540;5.854;2023-08-01T04:03:21;15.57;;;7.78;;
75035;SDS011;64247;51.540;5.854;2023-08-01T04:05:21;16.70;;;9.32;;
75035;SDS011;64247;51.540;5.854;2023-08-01T04:07:24;16.65;;;10.90;;
75035;SDS011;64247;51.540;5.854;2023-08-01T04:09:25;19.88;;;11.13;;
75035;SDS011;64247;51.540;5.854;2023-08-01T04:11:26;21.27;;;12.10;;
75035;SDS011;64247;51.540;5.854;2023-08-01T04:13:27;20.33;;;9.25;;
75035;SDS011;64247;51.540;5.854;2023-08-01T04:15:28;18.60;;;8.95;;
75035;SDS011;64247;51.540;5.854;2023-08-01T04:17:28;16.50;;;9.90;;
75035;SDS011;64247;51.540;5.854;2023-08-01T04:19:30;16.42;;;10.85;;
75035;SDS011;64247;51.540;5.854;2023-08-01T04:21:30;15.73;;;9.02;;
75035;SDS011;64247;51.540;5.854;2023-08-01T04:23:31;20.92;;;9.73;;
75035;SDS011;64247;51.540;5.854;2023-08-01T04:25:32;20.38;;;11.25;;
75035;SDS011;64247;51.540;5.854;2023-08-01T04:27:33;20.55;;;11.85;;
75035;SDS011;64247;51.540;5.854;2023-08-01T04:29:34;17.65;;;9.90;;
75035;SDS011;64247;51.540;5.854;2023-08-01T04:31:35;25.08;;;17.90;;
75035;SDS011;64247;51.540;5.854;2023-08-01T04:33:36;24.77;;;12.50;;
75035;SDS011;64247;51.540;5.854;2023-08-01T04:35:36;22.15;;;10.15;;
75035;SDS011;64247;51.540;5.854;2023-08-01T04:37:37;17.40;;;10.07;;
75035;SDS011;64247;51.540;5.854;2023-08-01T04:39:38;16.20;;;10.55;;
75035;SDS011;64247;51.540;5.854;2023-08-01T04:41:39;15.93;;;10.35;;
75035;SDS011;64247;51.540;5.854;2023-08-01T04:43:40;14.77;;;9.20;;
75035;SDS011;64247;51.540;5.854;2023-08-01T04:45:40;17.10;;;11.00;;
75035;SDS011;64247;51.540;5.854;2023-08-01T04:47:41;21.30;;;12.13;;
75035;SDS011;64247;51.540;5.854;2023-08-01T04:49:42;20.85;;;12.32;;
75035;SDS011;64247;51.540;5.854;2023-08-01T04:51:44;20.35;;;11.30;;
75035;SDS011;64247;51.540;5.854;2023-08-01T04:53:45;26.65;;;11.32;;
75035;SDS011;64247;51.540;5.854;2023-08-01T04:55:45;20.45;;;11.07;;
75035;SDS011;64247;51.540;5.854;2023-08-01T04:57:46;27.90;;;14.15;;
75035;SDS011;64247;51.540;5.854;2023-08-01T04:59:47;21.80;;;13.27;;
75035;SDS011;64247;51.540;5.854;2023-08-01T05:01:48;24.98;;;11.07;;
75035;SDS011;64247;51.540;5.854;2023-08-01T05:03:48;21.55;;;12.30;;
75035;SDS011;64247;51.540;5.854;2023-08-01T05:05:49;18.88;;;9.27;;
75035;SDS011;64247;51.540;5.854;2023-08-01T05:07:50;19.15;;;11.90;;
75035;SDS011;64247;51.540;5.854;2023-08-01T05:09:51;19.33;;;9.93;;
75035;SDS011;64247;51.540;5.854;2023-08-01T05:11:51;20.85;;;12.40;;
75035;SDS011;64247;51.540;5.854;2023-08-01T05:13:52;18.40;;;11.63;;
75035;SDS011;64247;51.540;5.854;2023-08-01T05:15:53;20.30;;;10.65;;
75035;SDS011;64247;51.540;5.854;2023-08-01T05:17:54;22.33;;;14.07;;
75035;SDS011;64247;51.540;5.854;2023-08-01T05:19:55;24.40;;;12.40;;
75035;SDS011;64247;51.540;5.854;2023-08-01T05:21:56;20.33;;;12.93;;
75035;SDS011;64247;51.540;5.854;2023-08-01T05:23:57;18.42;;;10.15;;
75035;SDS011;64247;51.540;5.854;2023-08-01T05:25:58;22.00;;;10.00;;
75035;SDS011;64247;51.540;5.854;2023-08-01T05:27:59;21.30;;;14.30;;
75035;SDS011;64247;51.540;5.854;2023-08-01T05:29:59;22.80;;;12.20;;
75035;SDS011;64247;51.540;5.854;2023-08-01T05:32:00;22.58;;;16.10;;
75035;SDS011;64247;51.540;5.854;2023-08-01T05:34:01;21.70;;;10.27;;
75035;SDS011;64247;51.540;5.854;2023-08-01T05:36:02;24.30;;;12.48;;
75035;SDS011;64247;51.540;5.854;2023-08-01T05:38:03;24.90;;;12.57;;
75035;SDS011;64247;51.540;5.854;2023-08-01T05:40:04;21.05;;;14.27;;
75035;SDS011;64247;51.540;5.854;2023-08-01T05:42:05;23.83;;;13.57;;
75035;SDS011;64247;51.540;5.854;2023-08-01T05:44:09;23.02;;;12.50;;
75035;SDS011;64247;51.540;5.854;2023-08-01T05:46:10;21.08;;;12.13;;
75035;SDS011;64247;51.540;5.854;2023-08-01T05:48:10;25.23;;;12.68;;
75035;SDS011;64247;51.540;5.854;2023-08-01T05:50:13;20.70;;;11.55;;
75035;SDS011;64247;51.540;5.854;2023-08-01T05:52:14;19.10;;;10.80;;
75035;SDS011;64247;51.540;5.854;2023-08-01T05:54:15;30.60;;;16.25;;
75035;SDS011;64247;51.540;5.854;2023-08-01T05:56:16;27.33;;;15.82;;
75035;SDS011;64247;51.540;5.854;2023-08-01T05:58:16;31.05;;;14.48;;
75035;SDS011;64247;51.540;5.854;2023-08-01T06:00:18;24.75;;;14.30;;
75035;SDS011;64247;51.540;5.854;2023-08-01T06:02:22;17.80;;;9.30;;
75035;SDS011;64247;51.540;5.854;2023-08-01T06:04:23;20.05;;;7.95;;
75035;SDS011;64247;51.540;5.854;2023-08-01T06:06:23;16.60;;;9.77;;
75035;SDS011;64247;51.540;5.854;2023-08-01T06:08:24;14.65;;;8.35;;
75035;SDS011;64247;51.540;5.854;2023-08-01T06:10:25;16.27;;;8.25;;
75035;SDS011;64247;51.540;5.854;2023-08-01T06:12:26;16.25;;;8.93;;
75035;SDS011;64247;51.540;5.854;2023-08-01T06:14:27;18.73;;;12.07;;
75035;SDS011;64247;51.540;5.854;2023-08-01T06:16:28;16.70;;;7.95;;
75035;SDS011;64247;51.540;5.854;2023-08-01T06:18:29;16.73;;;9.55;;
75035;SDS011;64247;51.540;5.854;2023-08-01T06:20:29;17.20;;;10.95;;
75035;SDS011;64247;51.540;5.854;2023-08-01T06:22:30;18.00;;;8.35;;
75035;SDS011;64247;51.540;5.854;2023-08-01T06:24:31;18.00;;;10.18;;
75035;SDS011;64247;51.540;5.854;2023-08-01T06:26:32;15.50;;;7.72;;
75035;SDS011;64247;51.540;5.854;2023-08-01T06:28:33;21.63;;;12.25;;
75035;SDS011;64247;51.540;5.854;2023-08-01T06:30:33;22.00;;;11.13;;
75035;SDS011;64247;51.540;5.854;2023-08-01T06:32:34;16.10;;;9.82;;
75035;SDS011;64247;51.540;5.854;2023-08-01T06:34:35;13.50;;;8.95;;
75035;SDS011;64247;51.540;5.854;2023-08-01T06:36:36;8.70;;;6.07;;
75035;SDS011;64247;51.540;5.854;2023-08-01T06:38:37;17.73;;;9.52;;
75035;SDS011;64247;51.540;5.854;2023-08-01T06:40:37;19.08;;;9.43;;
75035;SDS011;64247;51.540;5.854;2023-08-01T06:42:38;14.18;;;8.25;;
75035;SDS011;64247;51.540;5.854;2023-08-01T06:44:40;19.10;;;10.80;;
75035;SDS011;64247;51.540;5.854;2023-08-01T06:46:40;17.83;;;11.02;;
75035;SDS011;64247;51.540;5.854;2023-08-01T06:48:41;16.00;;;7.30;;
75035;SDS011;64247;51.540;5.854;2023-08-01T06:50:42;13.90;;;9.45;;
75035;SDS011;64247;51.540;5.854;2023-08-01T06:52:43;20.55;;;12.57;;
75035;SDS011;64247;51.540;5.854;2023-08-01T06:54:44;17.27;;;11.80;;
75035;SDS011;64247;51.540;5.854;2023-08-01T06:56:44;15.05;;;9.45;;
75035;SDS011;64247;51.540;5.854;2023-08-01T06:58:47;13.98;;;9.75;;
75035;SDS011;64247;51.540;5.854;2023-08-01T07:00:48;18.50;;;9.57;;
75035;SDS011;64247;51.540;5.854;2023-08-01T07:02:49;15.27;;;8.80;;
75035;SDS011;64247;51.540;5.854;2023-08-01T07:04:50;12.23;;;7.47;;
75035;SDS011;64247;51.540;5.854;2023-08-01T07:06:51;8.85;;;5.70;;
75035;SDS011;64247;51.540;5.854;2023-08-01T07:08:52;12.68;;;7.35;;
75035;SDS011;64247;51.540;5.854;2023-08-01T07:10:53;15.15;;;7.90;;
75035;SDS011;64247;51.540;5.854;2023-08-01T07:12:53;16.83;;;9.63;;
75035;SDS011;64247;51.540;5.854;2023-08-01T07:14:54;14.48;;;7.93;;
75035;SDS011;64247;51.540;5.854;2023-08-01T07:16:55;12.77;;;8.95;;
75035;SDS011;64247;51.540;5.854;2023-08-01T07:18:56;6.50;;;5.30;;
75035;SDS011;64247;51.540;5.854;2023-08-01T07:21:00;12.93;;;6.20;;
75035;SDS011;64247;51.540;5.854;2023-08-01T07:23:02;6.13;;;4.93;;
75035;SDS011;64247;51.540;5.854;2023-08-01T07:25:02;12.88;;;6.78;;
75035;SDS011;64247;51.540;5.854;2023-08-01T07:27:04;10.55;;;6.68;;
75035;SDS011;64247;51.540;5.854;2023-08-01T07:29:20;7.28;;;5.47;;
75035;SDS011;64247;51.540;5.854;2023-08-01T07:31:21;5.50;;;4.28;;
75035;SDS011;64247;51.540;5.854;2023-08-01T07:33:21;8.52;;;6.13;;
75035;SDS011;64247;51.540;5.854;2023-08-01T07:35:22;9.77;;;5.72;;
75035;SDS011;64247;51.540;5.854;2023-08-01T07:37:23;8.48;;;5.10;;
75035;SDS011;64247;51.540;5.854;2023-08-01T07:39:24;7.47;;;6.25;;
75035;SDS011;64247;51.540;5.854;2023-08-01T07:41:25;12.82;;;6.38;;
75035;SDS011;64247;51.540;5.854;2023-08-01T07:43:26;6.80;;;4.47;;
75035;SDS011;64247;51.540;5.854;2023-08-01T07:45:27;8.77;;;6.25;;
75035;SDS011;64247;51.540;5.854;2023-08-01T07:47:27;8.57;;;6.07;;
75035;SDS011;64247;51.540;5.854;2023-08-01T07:49:28;9.35;;;5.38;;
75035;SDS011;64247;51.540;5.854;2023-08-01T07:51:29;6.00;;;4.05;;
75035;SDS011;64247;51.540;5.854;2023-08-01T07:53:30;5.78;;;4.88;;
75035;SDS011;64247;51.540;5.854;2023-08-01T07:55:33;9.57;;;5.70;;
75035;SDS011;64247;51.540;5.854;2023-08-01T07:57:34;5.22;;;3.80;;
75035;SDS011;64247;51.540;5.854;2023-08-01T07:59:35;7.90;;;4.30;;
75035;SDS011;64247;51.540;5.854;2023-08-01T08:01:36;6.35;;;4.63;;
75035;SDS011;64247;51.540;5.854;2023-08-01T08:03:37;4.90;;;3.63;;
75035;SDS011;64247;51.540;5.854;2023-08-01T08:05:37;5.85;;;4.22;;
75035;SDS011;64247;51.540;5.854;2023-08-01T08:07:39;9.40;;;4.93;;
75035;SDS011;64247;51.540;5.854;2023-08-01T08:09:39;5.43;;;4.20;;
75035;SDS011;64247;51.540;5.854;2023-08-01T08:11:40;5.40;;;3.80;;
75035;SDS011;64247;51.540;5.854;2023-08-01T08:13:41;6.25;;;4.57;;
75035;SDS011;64247;51.540;5.854;2023-08-01T08:15:42;5.90;;;3.33;;
75035;SDS011;64247;51.540;5.854;2023-08-01T08:17:43;8.32;;;4.18;;
75035;SDS011;64247;51.540;5.854;2023-08-01T08:19:44;5.15;;;3.63;;
75035;SDS011;64247;51.540;5.854;2023-08-01T08:21:45;8.85;;;4.70;;
75035;SDS011;64247;51.540;5.854;2023-08-01T08:23:46;8.90;;;4.45;;
75035;SDS011;64247;51.540;5.854;2023-08-01T08:25:47;9.55;;;5.28;;
75035;SDS011;64247;51.540;5.854;2023-08-01T08:27:49;8.45;;;4.50;;
75035;SDS011;64247;51.540;5.854;2023-08-01T08:29:50;7.50;;;3.92;;
75035;SDS011;64247;51.540;5.854;2023-08-01T08:31:51;5.53;;;2.88;;
75035;SDS011;64247;51.540;5.854;2023-08-01T08:33:51;5.72;;;3.40;;
75035;SDS011;64247;51.540;5.854;2023-08-01T08:35:52;3.85;;;2.13;;
75035;SDS011;64247;51.540;5.854;2023-08-01T08:37:54;3.30;;;3.00;;
75035;SDS011;64247;51.540;5.854;2023-08-01T08:39:54;6.50;;;2.83;;
75035;SDS011;64247;51.540;5.854;2023-08-01T08:41:55;7.75;;;3.80;;
75035;SDS011;64247;51.540;5.854;2023-08-01T08:43:56;4.78;;;3.72;;
75035;SDS011;64247;51.540;5.854;2023-08-01T08:45:58;5.03;;;3.88;;
75035;SDS011;64247;51.540;5.854;2023-08-01T08:48:02;5.93;;;3.25;;
75035;SDS011;64247;51.540;5.854;2023-08-01T08:50:09;4.25;;;3.20;;
75035;SDS011;64247;51.540;5.854;2023-08-01T08:52:11;6.38;;;3.22;;
75035;SDS011;64247;51.540;5.854;2023-08-01T08:54:12;3.88;;;2.85;;
75035;SDS011;64247;51.540;5.854;2023-08-01T08:56:14;4.70;;;2.75;;
75035;SDS011;64247;51.540;5.854;2023-08-01T08:58:16;3.85;;;3.15;;
75035;SDS011;64247;51.540;5.854;2023-08-01T09:00:18;2.97;;;1.98;;
75035;SDS011;64247;51.540;5.854;2023-08-01T09:02:20;3.58;;;3.03;;
75035;SDS011;64247;51.540;5.854;2023-08-01T09:04:22;4.78;;;3.33;;
75035;SDS011;64247;51.540;5.854;2023-08-01T09:11:15;4.18;;;2.97;;
75035;SDS011;64247;51.540;5.854;2023-08-01T09:13:15;6.68;;;4.10;;
75035;SDS011;64247;51.540;5.854;2023-08-01T09:15:16;7.55;;;4.18;;
75035;SDS011;64247;51.540;5.854;2023-08-01T09:17:17;3.78;;;3.20;;
75035;SDS011;64247;51.540;5.854;2023-08-01T09:19:19;4.80;;;3.63;;
75035;SDS011;64247;51.540;5.854;2023-08-01T09:21:21;4.97;;;2.35;;
75035;SDS011;64247;51.540;5.854;2023-08-01T09:23:24;5.80;;;3.65;;
75035;SDS011;64247;51.540;5.854;2023-08-01T09:25:31;7.47;;;3.75;;
75035;SDS011;64247;51.540;5.854;2023-08-01T09:27:33;3.08;;;2.88;;
75035;SDS011;64247;51.540;5.854;2023-08-01T09:29:34;5.13;;;2.67;;
